Time;durP1;ratioP1;P1;durP2;ratioP2;P2;SDS_P1;SDS_P2;PMS_P1;PMS_P2;Temp;Humidity;BMP_temperature;BMP_pressure;BME280_temperature;BME280_humidity;BME280_pressure;Samples;Min_cycle;Max_cycle;Signal;HPM_P1;HPM_P2
2024/01/10 00:00:14;;;;;;;15.13;10.23;;;-6.60;99.90;;;;;;5022108;28;20460;-54
2024/01/10 00:02:41;;;;;;;17.27;11.10;;;-6.70;99.90;;;;;;5022344;28;20491;-53
2024/01/10 00:05:09;;;;;;;13.80;9.27;;;-6.70;99.90;;;;;;5022685;28;20982;-50
2024/01/10 00:07:36;;;;;;;16.30;10.60;;;-6.70;99.90;;;;;;5022176;28;20752;-49
2024/01/10 00:10:04;;;;;;;14.53;10.00;;;-6.80;99.90;;;;;;5022218;28;20492;-52
2024/01/10 00:12:35;;;;;;;19.60;11.90;;;-6.80;99.90;;;;;;5021866;28;20462;-55
2024/01/10 00:15:05;;;;;;;19.07;11.57;;;-6.80;99.90;;;;;;5022513;28;20467;-51
2024/01/10 00:17:33;;;;;;;14.00;10.07;;;-6.80;99.90;;;;;;5022387;28;20456;-50
2024/01/10 00:20:01;;;;;;;16.60;10.90;;;-6.80;99.90;;;;;;5022193;28;20465;-53
2024/01/10 00:22:28;;;;;;;15.07;10.50;;;-6.80;99.90;;;;;;5022659;28;20886;-52
2024/01/10 00:24:56;;;;;;;14.10;9.53;;;-6.80;99.90;;;;;;5022017;28;20555;-52
2024/01/10 00:27:23;;;;;;;15.00;10.17;;;-6.80;99.90;;;;;;5022315;28;20564;-54
2024/01/10 00:29:51;;;;;;;17.23;10.43;;;-6.80;99.90;;;;;;5022395;28;20607;-54
2024/01/10 00:32:20;;;;;;;17.50;11.10;;;-6.80;99.90;;;;;;5021819;28;20499;-56
2024/01/10 00:34:47;;;;;;;16.47;11.60;;;-6.90;99.90;;;;;;5022404;28;20910;-55
2024/01/10 00:37:15;;;;;;;20.53;11.93;;;-6.80;99.90;;;;;;5022741;28;20949;-56
2024/01/10 00:39:43;;;;;;;15.20;10.23;;;-6.90;99.90;;;;;;5022022;28;20560;-55
2024/01/10 00:42:10;;;;;;;26.57;15.47;;;-6.90;99.90;;;;;;5022200;28;20883;-56
2024/01/10 00:44:39;;;;;;;46.60;24.10;;;-6.90;99.90;;;;;;5021944;28;20461;-54
2024/01/10 00:47:06;;;;;;;36.53;19.53;;;-7.00;99.90;;;;;;5022122;28;20466;-54
2024/01/10 00:49:35;;;;;;;29.63;18.67;;;-7.00;99.90;;;;;;5021623;28;20492;-50
2024/01/10 00:52:03;;;;;;;28.40;19.60;;;-7.00;99.90;;;;;;5021983;28;20464;-54
2024/01/10 00:54:31;;;;;;;19.60;13.03;;;-7.10;99.90;;;;;;5021613;28;20905;-53
2024/01/10 00:56:58;;;;;;;16.17;11.50;;;-7.10;99.90;;;;;;5021707;28;20473;-50
2024/01/10 00:59:25;;;;;;;18.00;11.07;;;-7.10;99.90;;;;;;5021860;28;20479;-54
2024/01/10 01:01:53;;;;;;;15.30;9.77;;;-7.20;99.90;;;;;;5022142;28;20473;-52
2024/01/10 01:04:20;;;;;;;15.77;10.20;;;-7.10;99.90;;;;;;5021554;28;20553;-55
2024/01/10 01:06:49;;;;;;;16.80;9.57;;;-7.10;99.90;;;;;;5021578;28;20472;-50
2024/01/10 01:09:16;;;;;;;15.30;10.10;;;-7.10;99.90;;;;;;5021659;28;20521;-54
2024/01/10 01:11:43;;;;;;;16.10;10.57;;;-7.10;99.90;;;;;;5021818;28;20557;-52
2024/01/10 01:14:10;;;;;;;15.90;10.27;;;-7.10;99.90;;;;;;5021480;28;20456;-53
2024/01/10 01:16:38;;;;;;;16.70;9.77;;;-7.10;99.90;;;;;;5021076;28;20461;-52
2024/01/10 01:19:05;;;;;;;16.60;11.50;;;-7.00;99.90;;;;;;5021160;28;20493;-56
2024/01/10 01:21:32;;;;;;;17.40;11.23;;;-7.00;99.90;;;;;;5021783;28;20461;-51
2024/01/10 01:24:01;;;;;;;15.93;9.90;;;-6.90;99.90;;;;;;5021450;28;20910;-52
2024/01/10 01:26:29;;;;;;;14.20;10.40;;;-7.00;99.90;;;;;;5021445;28;20880;-54
2024/01/10 01:28:56;;;;;;;16.00;9.90;;;-7.00;99.90;;;;;;5021414;28;20467;-56
2024/01/10 01:31:23;;;;;;;16.93;10.50;;;-7.00;99.90;;;;;;5020457;28;20454;-55
2024/01/10 01:33:50;;;;;;;15.80;10.13;;;-7.10;99.90;;;;;;5021709;28;20522;-55
2024/01/10 01:36:18;;;;;;;15.87;10.70;;;-7.10;99.90;;;;;;5021177;28;20832;-54
2024/01/10 01:38:45;;;;;;;17.00;9.87;;;-7.10;99.90;;;;;;5012508;28;20476;-56
2024/01/10 01:41:16;;;;;;;15.20;9.90;;;-7.10;99.90;;;;;;5015833;28;20487;-52
2024/01/10 01:43:45;;;;;;;15.30;9.70;;;-7.00;99.90;;;;;;5021740;28;20497;-51
2024/01/10 01:46:14;;;;;;;15.90;9.93;;;-7.00;99.90;;;;;;5020918;28;20464;-54
2024/01/10 01:48:41;;;;;;;15.40;10.20;;;-7.00;99.90;;;;;;5013765;28;20883;-53
2024/01/10 01:51:10;;;;;;;15.87;9.80;;;-7.10;99.90;;;;;;5000415;28;20536;-53
2024/01/10 01:53:38;;;;;;;19.10;11.00;;;-7.10;99.90;;;;;;5001795;28;20463;-53
2024/01/10 01:56:08;;;;;;;17.23;11.10;;;-7.10;99.90;;;;;;5001056;28;20472;-54
2024/01/10 01:58:38;;;;;;;17.30;10.90;;;-7.00;99.90;;;;;;5001741;28;20470;-53
2024/01/10 02:01:06;;;;;;;16.27;11.57;;;-7.00;99.90;;;;;;5001991;28;20945;-54
2024/01/10 02:03:33;;;;;;;17.67;11.10;;;-7.10;99.90;;;;;;5001791;28;20492;-50
2024/01/10 02:06:03;;;;;;;18.47;12.00;;;-7.00;99.90;;;;;;5001583;28;20468;-56
2024/01/10 02:08:31;;;;;;;17.10;11.67;;;-7.10;99.90;;;;;;5001397;28;20448;-51
2024/01/10 02:10:58;;;;;;;18.40;11.83;;;-7.10;99.90;;;;;;5001040;28;20497;-54
2024/01/10 02:13:25;;;;;;;19.43;10.80;;;-7.10;99.90;;;;;;5001442;28;20987;-51
2024/01/10 02:15:55;;;;;;;19.37;12.63;;;-7.20;99.90;;;;;;5000731;28;20489;-51
2024/01/10 02:18:22;;;;;;;16.53;10.40;;;-7.30;99.90;;;;;;5001535;28;20472;-54
2024/01/10 02:20:51;;;;;;;14.83;10.23;;;-7.40;99.90;;;;;;5001230;28;20852;-53
2024/01/10 02:23:19;;;;;;;14.10;10.10;;;-7.40;99.90;;;;;;5001797;28;20535;-53
2024/01/10 02:25:48;;;;;;;17.40;10.90;;;-7.40;99.90;;;;;;5001642;28;20465;-53
2024/01/10 02:28:15;;;;;;;17.33;10.70;;;-7.40;99.90;;;;;;5001270;28;20460;-51
2024/01/10 02:30:42;;;;;;;13.87;10.07;;;-7.50;99.90;;;;;;5001826;28;20524;-55
2024/01/10 02:33:09;;;;;;;14.93;10.60;;;-7.50;99.90;;;;;;5001681;28;20460;-56
2024/01/10 02:35:37;;;;;;;15.00;10.30;;;-7.50;99.90;;;;;;5002718;28;20487;-55
2024/01/10 02:38:05;;;;;;;15.90;11.03;;;-7.50;99.90;;;;;;5001585;28;20447;-56
2024/01/10 02:40:32;;;;;;;15.50;11.37;;;-7.50;99.90;;;;;;5001854;28;20465;-55
2024/01/10 02:43:00;;;;;;;15.47;11.90;;;-7.50;99.90;;;;;;5005036;28;20469;-55
2024/01/10 02:45:28;;;;;;;18.60;12.17;;;-7.40;99.90;;;;;;5005896;28;20464;-56
2024/01/10 02:47:55;;;;;;;17.10;11.27;;;-7.50;99.90;;;;;;5005072;28;20476;-50
2024/01/10 02:50:23;;;;;;;15.20;11.80;;;-7.40;99.90;;;;;;5004903;28;20496;-51
2024/01/10 02:52:50;;;;;;;16.30;11.03;;;-7.40;99.90;;;;;;5005446;28;20842;-53
2024/01/10 02:55:18;;;;;;;18.20;11.90;;;-7.40;99.90;;;;;;5005597;28;20464;-53
2024/01/10 02:57:45;;;;;;;17.30;11.53;;;-7.40;99.90;;;;;;5005319;28;20857;-49
2024/01/10 03:00:15;;;;;;;15.43;11.30;;;-7.40;99.90;;;;;;5005356;28;20453;-51
2024/01/10 03:02:42;;;;;;;18.50;11.70;;;-7.30;99.90;;;;;;5018088;28;20866;-59
2024/01/10 03:05:09;;;;;;;20.80;11.60;;;-7.40;99.90;;;;;;5000760;28;20465;-59
2024/01/10 03:07:36;;;;;;;16.27;10.67;;;-7.40;99.90;;;;;;5001149;28;20559;-59
2024/01/10 03:10:05;;;;;;;16.07;10.87;;;-7.50;99.90;;;;;;5004460;28;20605;-50
2024/01/10 03:12:32;;;;;;;15.97;11.23;;;-7.50;99.90;;;;;;5004200;28;20791;-56
2024/01/10 03:14:59;;;;;;;17.07;12.03;;;-7.60;99.90;;;;;;5004538;28;20442;-49
2024/01/10 03:17:28;;;;;;;17.83;12.23;;;-7.70;99.90;;;;;;5004387;28;20875;-51
2024/01/10 03:19:55;;;;;;;17.80;12.10;;;-7.80;99.90;;;;;;5002715;28;20493;-58
2024/01/10 03:22:22;;;;;;;17.50;11.57;;;-7.80;99.90;;;;;;4999975;28;20461;-59
2024/01/10 03:24:50;;;;;;;16.13;11.87;;;-7.90;99.90;;;;;;5000323;28;20462;-59
2024/01/10 03:27:17;;;;;;;17.03;10.57;;;-7.90;99.90;;;;;;5000641;28;20571;-59
2024/01/10 03:29:45;;;;;;;18.33;11.53;;;-7.90;99.90;;;;;;5000617;28;20894;-59
2024/01/10 03:32:13;;;;;;;13.73;9.83;;;-8.00;99.90;;;;;;5000316;28;20919;-57
2024/01/10 03:34:42;;;;;;;17.20;12.10;;;-7.90;99.90;;;;;;5000003;28;20469;-57
2024/01/10 03:37:11;;;;;;;18.13;11.57;;;-8.00;99.90;;;;;;5000641;28;20496;-58
2024/01/10 03:39:38;;;;;;;15.50;10.93;;;-7.90;99.90;;;;;;5000617;28;20564;-58
2024/01/10 03:42:05;;;;;;;21.77;12.73;;;-8.00;99.90;;;;;;5000356;28;20614;-57
2024/01/10 03:44:32;;;;;;;19.20;11.33;;;-8.00;99.90;;;;;;5000250;28;20511;-58
2024/01/10 03:47:00;;;;;;;17.60;10.70;;;-8.00;99.90;;;;;;5000334;28;20465;-59
2024/01/10 03:49:27;;;;;;;18.80;10.43;;;-8.00;99.90;;;;;;5000516;28;20468;-58
2024/01/10 03:51:57;;;;;;;20.27;11.03;;;-8.00;99.90;;;;;;4999682;28;20594;-59
2024/01/10 03:54:24;;;;;;;15.97;11.17;;;-8.10;99.90;;;;;;4999079;28;20482;-58
2024/01/10 03:56:51;;;;;;;17.60;11.17;;;-8.00;99.90;;;;;;4999939;28;20515;-59
2024/01/10 03:59:19;;;;;;;17.00;10.77;;;-8.00;99.90;;;;;;4999943;28;20468;-57
2024/01/10 04:01:46;;;;;;;15.83;11.10;;;-8.00;99.90;;;;;;5000949;28;20750;-59
2024/01/10 04:04:14;;;;;;;17.30;10.70;;;-8.00;99.90;;;;;;4999671;28;20898;-59
2024/01/10 04:06:41;;;;;;;16.70;10.93;;;-8.00;99.90;;;;;;4999489;28;20565;-59
2024/01/10 04:09:11;;;;;;;15.40;11.87;;;-7.90;99.90;;;;;;4999778;28;20499;-60
2024/01/10 04:11:38;;;;;;;14.87;10.83;;;-7.90;99.90;;;;;;4999338;28;20497;-58
2024/01/10 04:14:06;;;;;;;21.93;13.57;;;-7.80;99.90;;;;;;4999896;28;20466;-58
2024/01/10 04:16:34;;;;;;;18.73;13.10;;;-7.80;99.90;;;;;;4999589;28;20472;-58
2024/01/10 04:19:01;;;;;;;18.93;12.80;;;-7.80;99.90;;;;;;4999271;28;20562;-59
2024/01/10 04:21:29;;;;;;;24.27;15.00;;;-7.90;99.90;;;;;;4999794;28;20863;-59
2024/01/10 04:23:57;;;;;;;37.00;21.43;;;-7.90;99.90;;;;;;4999969;28;20519;-59
2024/01/10 04:26:26;;;;;;;35.60;21.77;;;-7.90;99.90;;;;;;4999248;28;20496;-59
2024/01/10 04:28:53;;;;;;;33.83;21.20;;;-7.90;99.90;;;;;;4999231;28;20506;-60
2024/01/10 04:31:20;;;;;;;36.43;22.77;;;-7.90;99.90;;;;;;4999222;28;20579;-59
2024/01/10 04:33:48;;;;;;;28.47;17.50;;;-7.90;99.90;;;;;;4999363;28;20956;-58
2024/01/10 04:36:16;;;;;;;24.60;13.77;;;-7.90;99.90;;;;;;4999265;28;20468;-58
2024/01/10 04:38:44;;;;;;;19.07;14.53;;;-7.90;99.90;;;;;;4998985;28;20466;-57
2024/01/10 04:41:11;;;;;;;20.70;14.50;;;-7.90;99.90;;;;;;4999154;28;20457;-58
2024/01/10 04:43:40;;;;;;;19.50;13.37;;;-7.90;99.90;;;;;;4999389;28;20500;-58
2024/01/10 04:46:10;;;;;;;17.90;12.90;;;-7.90;99.90;;;;;;4999410;28;20904;-58
2024/01/10 04:48:37;;;;;;;17.37;14.50;;;-7.90;99.90;;;;;;4998730;28;20465;-57
2024/01/10 04:51:05;;;;;;;21.30;15.37;;;-8.00;99.90;;;;;;4998537;28;20488;-59
2024/01/10 04:53:32;;;;;;;23.60;15.87;;;-7.90;99.90;;;;;;4999287;28;20527;-59
2024/01/10 04:56:00;;;;;;;24.13;16.30;;;-7.90;99.90;;;;;;4999234;28;20901;-59
2024/01/10 04:58:29;;;;;;;21.17;12.60;;;-7.90;99.90;;;;;;4998441;28;20826;-60
2024/01/10 05:00:58;;;;;;;19.40;12.07;;;-7.90;99.90;;;;;;4999141;28;20558;-59
2024/01/10 05:03:25;;;;;;;20.87;13.07;;;-7.90;99.90;;;;;;4998521;28;20977;-59
2024/01/10 05:05:52;;;;;;;32.17;20.20;;;-7.90;99.90;;;;;;5000754;28;20556;-57
2024/01/10 05:08:20;;;;;;;33.63;19.70;;;-7.80;99.90;;;;;;5018200;28;20890;-59
2024/01/10 05:10:47;;;;;;;28.43;18.10;;;-7.90;99.90;;;;;;5018667;28;20489;-58
2024/01/10 05:13:14;;;;;;;23.07;14.90;;;-7.80;99.90;;;;;;5017969;28;20464;-59
2024/01/10 05:15:42;;;;;;;25.67;16.70;;;-7.90;99.90;;;;;;4998991;28;20461;-59
2024/01/10 05:18:11;;;;;;;19.13;13.47;;;-7.90;99.90;;;;;;4998823;28;20457;-59
2024/01/10 05:20:39;;;;;;;23.30;15.17;;;-8.00;99.90;;;;;;4997800;28;20460;-59
2024/01/10 05:23:06;;;;;;;22.00;14.57;;;-8.00;99.90;;;;;;5005349;28;20460;-57
2024/01/10 05:25:33;;;;;;;26.77;17.80;;;-7.90;99.90;;;;;;5017178;28;20468;-59
2024/01/10 05:28:01;;;;;;;22.87;16.30;;;-7.90;99.90;;;;;;5016816;28;20530;-60
2024/01/10 05:30:30;;;;;;;22.07;16.43;;;-7.90;99.90;;;;;;5016066;28;20558;-57
2024/01/10 05:32:57;;;;;;;22.83;14.40;;;-7.90;99.90;;;;;;5016521;28;20550;-58
2024/01/10 05:35:26;;;;;;;30.00;17.80;;;-8.00;99.90;;;;;;5016842;28;20469;-57
2024/01/10 05:37:54;;;;;;;23.70;15.90;;;-7.90;99.90;;;;;;5016728;28;20908;-56
2024/01/10 05:40:22;;;;;;;23.73;15.57;;;-8.00;99.90;;;;;;5017131;28;20464;-57
2024/01/10 05:42:49;;;;;;;22.20;14.97;;;-7.90;99.90;;;;;;5018146;28;20464;-57
2024/01/10 05:45:18;;;;;;;19.93;12.97;;;-7.90;99.90;;;;;;5018287;28;20594;-58
2024/01/10 05:47:45;;;;;;;17.60;12.67;;;-7.80;99.90;;;;;;5018278;28;20760;-57
2024/01/10 05:50:12;;;;;;;24.00;14.50;;;-7.80;99.90;;;;;;5017890;28;20525;-58
2024/01/10 05:52:41;;;;;;;17.53;12.17;;;-7.70;99.90;;;;;;5017280;28;20532;-57
2024/01/10 05:55:09;;;;;;;18.93;13.37;;;-7.70;99.90;;;;;;5017905;28;20571;-56
2024/01/10 05:57:36;;;;;;;21.93;13.33;;;-7.70;99.90;;;;;;5017832;28;20525;-57
2024/01/10 06:00:04;;;;;;;24.10;15.17;;;-7.70;99.90;;;;;;5017750;28;20878;-58
2024/01/10 06:02:32;;;;;;;23.63;14.47;;;-7.60;99.90;;;;;;5017411;28;20787;-58
2024/01/10 06:04:59;;;;;;;21.00;15.10;;;-7.60;99.90;;;;;;5017493;28;20467;-56
2024/01/10 06:07:27;;;;;;;23.07;15.50;;;-7.60;99.90;;;;;;5017597;28;20519;-57
2024/01/10 06:09:56;;;;;;;23.10;15.00;;;-7.50;99.90;;;;;;5017653;28;20464;-57
2024/01/10 06:12:23;;;;;;;26.30;14.80;;;-7.40;99.90;;;;;;5017249;28;20492;-58
2024/01/10 06:14:51;;;;;;;27.33;16.40;;;-7.50;99.90;;;;;;5017705;28;20855;-58
2024/01/10 06:17:19;;;;;;;22.20;14.20;;;-7.50;99.90;;;;;;5019771;28;20459;-55
2024/01/10 06:19:46;;;;;;;20.10;11.80;;;-7.40;99.90;;;;;;5021389;28;20514;-57
2024/01/10 06:22:14;;;;;;;12.97;11.07;;;-7.40;99.90;;;;;;5021227;28;20456;-58
2024/01/10 06:24:42;;;;;;;18.90;13.27;;;-7.30;99.90;;;;;;5021014;28;20479;-56
2024/01/10 06:27:11;;;;;;;21.47;12.87;;;-7.20;99.90;;;;;;5020250;28;20475;-57
2024/01/10 06:29:38;;;;;;;20.60;13.37;;;-6.80;99.90;;;;;;5021207;28;20468;-58
2024/01/10 06:32:06;;;;;;;23.50;15.20;;;-6.80;99.90;;;;;;5020570;28;20527;-59
2024/01/10 06:34:33;;;;;;;21.37;14.97;;;-6.90;99.90;;;;;;5021227;28;20782;-58
2024/01/10 06:37:01;;;;;;;20.07;13.90;;;-7.10;99.90;;;;;;5020705;28;20461;-58
2024/01/10 06:39:28;;;;;;;20.33;14.00;;;-7.30;99.90;;;;;;5018542;28;20463;-58
2024/01/10 06:41:57;;;;;;;25.57;12.47;;;-7.30;99.90;;;;;;5020042;28;20457;-57
2024/01/10 06:44:27;;;;;;;20.33;13.03;;;-7.30;99.90;;;;;;5020830;28;20452;-60
2024/01/10 06:46:55;;;;;;;19.40;12.20;;;-7.30;99.90;;;;;;5020961;28;20824;-60
2024/01/10 06:49:22;;;;;;;21.47;12.00;;;-7.40;99.90;;;;;;5021104;28;20459;-60
2024/01/10 06:51:50;;;;;;;17.27;12.27;;;-7.50;99.90;;;;;;5021143;28;20540;-60
2024/01/10 06:54:18;;;;;;;22.77;12.10;;;-7.50;99.90;;;;;;5019937;28;20463;-59
2024/01/10 06:56:45;;;;;;;20.93;12.80;;;-7.60;99.90;;;;;;5018500;28;20482;-60
2024/01/10 06:59:12;;;;;;;19.60;12.00;;;-7.60;99.90;;;;;;5017326;28;20464;-59
2024/01/10 07:01:41;;;;;;;22.50;13.03;;;-7.70;99.90;;;;;;5017172;28;20438;-58
2024/01/10 07:04:08;;;;;;;24.27;13.23;;;-7.70;99.90;;;;;;5017726;28;20988;-60
2024/01/10 07:06:36;;;;;;;20.60;14.13;;;-7.60;99.90;;;;;;5017326;28;20461;-60
2024/01/10 07:09:05;;;;;;;19.27;12.70;;;-7.60;99.90;;;;;;5017900;28;20529;-59
2024/01/10 07:11:32;;;;;;;24.47;15.77;;;-7.60;99.90;;;;;;5018852;28;20542;-59
2024/01/10 07:14:00;;;;;;;24.73;15.20;;;-7.70;99.90;;;;;;5019842;28;20464;-60
2024/01/10 07:16:28;;;;;;;28.90;19.17;;;-7.70;99.90;;;;;;5020689;28;20882;-59
2024/01/10 07:18:56;;;;;;;27.00;19.40;;;-7.70;99.90;;;;;;5020466;28;20446;-59
2024/01/10 07:21:24;;;;;;;23.33;15.60;;;-7.70;99.90;;;;;;5021023;28;20817;-59
2024/01/10 07:23:51;;;;;;;33.10;18.23;;;-7.70;99.90;;;;;;5020929;28;20460;-59
2024/01/10 07:26:18;;;;;;;28.77;18.43;;;-7.60;99.90;;;;;;5020414;28;20484;-59
2024/01/10 07:28:45;;;;;;;22.57;15.30;;;-7.60;99.90;;;;;;5018400;28;20468;-60
2024/01/10 07:31:13;;;;;;;22.57;16.00;;;-7.60;99.90;;;;;;5019724;28;20520;-59
2024/01/10 07:33:41;;;;;;;20.50;15.50;;;-7.60;99.90;;;;;;5019470;28;20460;-59
2024/01/10 07:36:09;;;;;;;22.13;15.50;;;-7.60;99.90;;;;;;5020786;28;20456;-59
2024/01/10 07:38:37;;;;;;;20.03;14.10;;;-7.60;99.90;;;;;;5019991;28;20460;-59
2024/01/10 07:41:04;;;;;;;20.23;14.57;;;-7.60;99.90;;;;;;5019944;28;20835;-59
2024/01/10 07:43:31;;;;;;;18.60;13.90;;;-7.60;99.90;;;;;;5022255;28;20484;-57
2024/01/10 07:46:01;;;;;;;20.40;14.50;;;-7.60;99.90;;;;;;5022307;28;20538;-56
2024/01/10 07:48:30;;;;;;;23.67;15.37;;;-7.50;99.90;;;;;;5022059;28;20563;-56
2024/01/10 07:50:57;;;;;;;20.50;14.13;;;-7.50;99.90;;;;;;5022886;28;20467;-57
2024/01/10 07:53:27;;;;;;;18.60;12.67;;;-7.50;99.90;;;;;;5022972;28;20909;-57
2024/01/10 07:55:54;;;;;;;19.87;12.43;;;-7.50;99.90;;;;;;5022384;28;20461;-57
2024/01/10 07:58:21;;;;;;;18.80;13.73;;;-7.50;99.90;;;;;;5021919;28;20515;-56
2024/01/10 08:00:49;;;;;;;20.40;13.37;;;-7.40;99.90;;;;;;5022804;28;20456;-57
2024/01/10 08:03:16;;;;;;;18.10;13.67;;;-7.40;99.90;;;;;;5021230;28;20476;-57
2024/01/10 08:05:44;;;;;;;24.00;14.70;;;-7.40;99.90;;;;;;5021532;28;20488;-58
2024/01/10 08:08:13;;;;;;;19.97;13.17;;;-7.30;99.90;;;;;;5022034;28;20452;-57
2024/01/10 08:10:42;;;;;;;24.47;14.43;;;-7.30;99.90;;;;;;5021790;28;20461;-56
2024/01/10 08:13:10;;;;;;;19.63;13.57;;;-7.20;99.90;;;;;;5021145;28;20499;-57
2024/01/10 08:15:38;;;;;;;21.47;15.40;;;-7.00;99.90;;;;;;5021404;28;20465;-58
2024/01/10 08:18:07;;;;;;;28.50;16.73;;;-6.90;99.90;;;;;;5020844;28;20438;-58
2024/01/10 08:20:34;;;;;;;24.47;16.30;;;-6.80;99.90;;;;;;5020964;28;20497;-56
2024/01/10 08:23:01;;;;;;;24.33;14.83;;;-6.60;99.90;;;;;;5020803;28;20464;-59
2024/01/10 08:25:29;;;;;;;23.97;15.87;;;-6.50;99.90;;;;;;5020770;28;20457;-58
2024/01/10 08:27:58;;;;;;;21.80;13.40;;;-6.40;99.90;;;;;;5021170;28;20488;-58
2024/01/10 08:30:26;;;;;;;20.87;14.97;;;-6.20;99.90;;;;;;5019821;28;20514;-58
2024/01/10 08:32:53;;;;;;;23.93;15.17;;;-6.00;99.90;;;;;;5020351;28;20500;-59
2024/01/10 08:35:21;;;;;;;25.17;15.57;;;-5.90;99.90;;;;;;5020705;28;20559;-58
2024/01/10 08:37:49;;;;;;;23.40;15.27;;;-5.70;99.90;;;;;;5020493;28;20470;-58
2024/01/10 08:40:17;;;;;;;26.30;16.47;;;-5.60;99.90;;;;;;5019440;28;20510;-58
2024/01/10 08:42:44;;;;;;;19.53;13.87;;;-5.40;99.90;;;;;;5019866;28;20463;-58
2024/01/10 08:45:14;;;;;;;22.20;15.23;;;-5.30;99.90;;;;;;5019977;28;20952;-58
2024/01/10 08:47:43;;;;;;;20.53;13.63;;;-5.10;99.90;;;;;;5020280;28;20467;-59
2024/01/10 08:50:11;;;;;;;20.60;13.97;;;-5.00;99.90;;;;;;5019848;28;20467;-58
2024/01/10 08:52:38;;;;;;;19.83;13.17;;;-4.90;99.90;;;;;;5019775;28;20585;-58
2024/01/10 08:55:07;;;;;;;21.47;13.10;;;-4.70;99.90;;;;;;5019625;28;20460;-58
2024/01/10 08:57:35;;;;;;;25.90;15.20;;;-4.70;99.90;;;;;;5019878;28;20467;-58
2024/01/10 09:00:04;;;;;;;27.23;21.40;;;-4.50;99.90;;;;;;5019731;28;20471;-59
2024/01/10 09:02:36;;;;;;;22.60;13.90;;;-4.40;99.90;;;;;;5017952;28;20974;-58
2024/01/10 09:05:04;;;;;;;23.30;15.03;;;-4.20;99.90;;;;;;5018920;28;20467;-59
2024/01/10 09:07:31;;;;;;;21.67;13.57;;;-4.10;99.90;;;;;;5018866;28;20504;-58
2024/01/10 09:09:59;;;;;;;21.93;13.97;;;-4.00;99.90;;;;;;5018484;28;20442;-58
2024/01/10 09:12:26;;;;;;;20.50;14.07;;;-3.80;99.90;;;;;;5016902;28;20503;-58
2024/01/10 09:14:54;;;;;;;21.53;13.80;;;-3.80;99.90;;;;;;5018834;28;20924;-60
2024/01/10 09:17:21;;;;;;;19.30;13.90;;;-3.70;99.90;;;;;;5018676;28;20470;-58
2024/01/10 09:19:50;;;;;;;22.53;14.13;;;-3.60;99.90;;;;;;5018578;28;20896;-59
2024/01/10 09:22:18;;;;;;;24.40;14.80;;;-3.50;99.90;;;;;;5018407;28;20445;-59
2024/01/10 09:24:46;;;;;;;18.90;13.93;;;-3.40;99.90;;;;;;5018164;28;20486;-58
2024/01/10 09:27:14;;;;;;;19.93;12.97;;;-3.20;99.90;;;;;;5018313;28;20559;-58
2024/01/10 09:29:41;;;;;;;21.07;13.30;;;-3.20;99.90;;;;;;5018384;28;20488;-58
2024/01/10 09:32:08;;;;;;;22.37;13.90;;;-3.10;99.90;;;;;;5018328;28;20639;-58
2024/01/10 09:34:36;;;;;;;22.73;14.63;;;-3.00;99.90;;;;;;5018328;28;20508;-58
2024/01/10 09:37:05;;;;;;;20.23;14.53;;;-3.10;99.90;;;;;;5018306;28;20460;-59
2024/01/10 09:39:32;;;;;;;18.27;14.30;;;-3.10;99.90;;;;;;5018485;28;20496;-59
2024/01/10 09:42:01;;;;;;;19.43;13.87;;;-2.90;99.90;;;;;;5018488;28;20481;-58
2024/01/10 09:44:29;;;;;;;21.37;13.60;;;-2.70;99.90;;;;;;5018442;28;20465;-58
2024/01/10 09:46:56;;;;;;;19.40;13.30;;;-2.40;99.90;;;;;;5017811;28;20465;-59
2024/01/10 09:49:25;;;;;;;24.23;14.50;;;-2.30;99.90;;;;;;5017880;28;20510;-58
2024/01/10 09:51:58;;;;;;;20.20;13.27;;;-2.20;99.90;;;;;;5017023;28;20886;-59
2024/01/10 09:54:30;;;;;;;19.60;13.37;;;-2.00;99.90;;;;;;5017632;28;20487;-58
2024/01/10 09:56:58;;;;;;;20.70;13.50;;;-2.00;99.90;;;;;;5017577;28;20462;-58
2024/01/10 09:59:25;;;;;;;21.60;12.97;;;-2.10;99.90;;;;;;5017839;28;20470;-58
2024/01/10 10:01:54;;;;;;;18.50;12.90;;;-2.20;99.90;;;;;;5017972;28;20528;-58
2024/01/10 10:04:23;;;;;;;23.50;12.77;;;-2.70;99.90;;;;;;5015412;28;20497;-59
2024/01/10 10:07:00;;;;;;;19.67;12.60;;;-2.30;99.90;;;;;;4998224;28;20518;-59
2024/01/10 10:09:31;;;;;;;21.63;13.40;;;-2.10;99.90;;;;;;4998317;28;20491;-59
2024/01/10 10:11:58;;;;;;;20.00;12.43;;;-1.80;99.90;;;;;;5009903;28;20721;-59
2024/01/10 10:14:30;;;;;;;20.43;13.80;;;-1.60;99.90;;;;;;4997678;28;20474;-60
2024/01/10 10:16:57;;;;;;;19.53;13.03;;;-1.30;99.90;;;;;;5008146;28;20582;-59
2024/01/10 10:19:25;;;;;;;19.47;13.13;;;-1.00;99.90;;;;;;5016706;28;20468;-59
2024/01/10 10:21:53;;;;;;;23.23;13.53;;;-0.80;99.90;;;;;;5015602;28;20796;-59
2024/01/10 10:24:21;;;;;;;20.33;13.50;;;-0.70;99.90;;;;;;5017237;28;20455;-60
2024/01/10 10:26:50;;;;;;;19.70;13.57;;;-0.50;99.90;;;;;;5016524;28;20922;-59
2024/01/10 10:29:19;;;;;;;22.10;14.50;;;-0.30;99.90;;;;;;5013715;28;20506;-59
2024/01/10 10:31:50;;;;;;;23.07;13.17;;;-0.20;99.90;;;;;;5014859;28;20464;-59
2024/01/10 10:34:23;;;;;;;24.90;14.80;;;-0.20;99.90;;;;;;5015644;28;20870;-60
2024/01/10 10:36:50;;;;;;;25.00;14.77;;;0.00;99.90;;;;;;5016835;28;20932;-59
2024/01/10 10:39:18;;;;;;;23.70;15.97;;;0.20;99.90;;;;;;5017555;28;20456;-59
2024/01/10 10:41:52;;;;;;;21.10;14.30;;;0.30;99.90;;;;;;5015196;28;20985;-60
2024/01/10 10:44:22;;;;;;;21.47;14.27;;;0.30;99.90;;;;;;4997725;28;20460;-59
2024/01/10 10:46:53;;;;;;;21.53;14.63;;;0.20;99.90;;;;;;5001278;28;20482;-59
2024/01/10 10:49:29;;;;;;;21.63;13.27;;;0.40;99.90;;;;;;5010716;28;20495;-59
2024/01/10 10:52:00;;;;;;;22.07;14.37;;;0.60;99.90;;;;;;5013958;28;20476;-60
2024/01/10 10:54:32;;;;;;;23.00;14.97;;;0.80;99.90;;;;;;5008377;28;20756;-58
2024/01/10 10:57:04;;;;;;;23.13;14.63;;;1.10;99.90;;;;;;5016792;28;20487;-60
2024/01/10 10:59:35;;;;;;;19.17;13.37;;;1.30;99.90;;;;;;4995627;28;20457;-59
2024/01/10 11:02:02;;;;;;;23.50;14.60;;;1.40;99.90;;;;;;4997377;28;20555;-59
2024/01/10 11:04:31;;;;;;;20.23;13.93;;;1.10;99.90;;;;;;5005987;28;20488;-60
2024/01/10 11:06:58;;;;;;;25.93;16.03;;;0.90;99.90;;;;;;5017542;28;20466;-59
2024/01/10 11:09:26;;;;;;;21.43;14.63;;;0.90;99.90;;;;;;5018764;28;20894;-59
2024/01/10 11:12:20;;;;;;;23.30;14.53;;;1.00;99.90;;;;;;5015452;28;20464;-60
2024/01/10 11:15:03;;;;;;;20.03;13.83;;;1.10;99.90;;;;;;4997951;28;20730;-59
2024/01/10 11:17:54;;;;;;;29.23;13.70;;;1.40;99.90;;;;;;4999091;28;20459;-61
2024/01/10 11:20:40;;;;;;;22.37;13.97;;;1.60;99.90;;;;;;4999035;28;20500;-61
2024/01/10 11:23:33;;;;;;;22.73;14.33;;;1.70;99.90;;;;;;5000751;28;20768;-61
2024/01/10 11:26:01;;;;;;;16.47;12.80;;;1.90;99.90;;;;;;5007101;28;20464;-61
2024/01/10 11:28:33;;;;;;;24.03;14.13;;;2.10;99.90;;;;;;5019856;28;20467;-62
2024/01/10 11:31:00;;;;;;;19.83;13.17;;;2.30;99.90;;;;;;5018680;28;20471;-62
2024/01/10 11:33:33;;;;;;;20.17;15.03;;;2.30;99.90;;;;;;5020082;28;20507;-61
2024/01/10 11:36:17;;;;;;;25.17;14.27;;;2.30;99.90;;;;;;5003928;28;20466;-61
2024/01/10 11:38:49;;;;;;;21.00;12.73;;;2.20;99.90;;;;;;5019561;28;20464;-62
2024/01/10 11:41:24;;;;;;;20.50;13.60;;;2.20;99.90;;;;;;5019911;28;20466;-61
2024/01/10 11:44:40;;;;;;;23.17;12.93;;;2.30;99.90;;;;;;5019835;28;20510;-62
2024/01/10 11:47:09;;;;;;;16.57;11.87;;;2.50;99.90;;;;;;5019704;28;20456;-61
2024/01/10 11:49:37;;;;;;;19.37;12.87;;;2.70;99.90;;;;;;5019655;28;20460;-61
2024/01/10 11:52:05;;;;;;;18.50;11.67;;;2.90;99.90;;;;;;5019552;28;20783;-61
2024/01/10 11:54:43;;;;;;;16.67;12.90;;;3.00;99.90;;;;;;5019227;28;20582;-62
2024/01/10 11:57:13;;;;;;;16.40;12.20;;;3.30;99.90;;;;;;5019503;28;20879;-62
2024/01/10 11:59:43;;;;;;;19.40;12.90;;;3.20;99.90;;;;;;5019468;28;20881;-62
2024/01/10 12:02:13;;;;;;;22.20;12.93;;;3.40;99.90;;;;;;5019010;28;20510;-62
2024/01/10 12:04:42;;;;;;;15.47;12.50;;;3.50;99.90;;;;;;5019108;28;20550;-63
2024/01/10 12:07:09;;;;;;;18.37;12.60;;;3.70;99.90;;;;;;5018963;28;20467;-63
2024/01/10 12:09:37;;;;;;;17.50;12.23;;;3.70;99.90;;;;;;5019494;28;20460;-63
2024/01/10 12:12:04;;;;;;;16.90;10.23;;;3.90;99.90;;;;;;5017666;28;20499;-63
2024/01/10 12:14:32;;;;;;;17.67;11.57;;;4.00;99.90;;;;;;5017806;28;20793;-63
2024/01/10 12:17:01;;;;;;;15.73;11.50;;;3.80;99.90;;;;;;5019127;28;20911;-63
2024/01/10 12:19:30;;;;;;;17.17;11.90;;;3.90;99.90;;;;;;5019001;28;20487;-64
2024/01/10 12:21:58;;;;;;;17.37;12.80;;;3.90;99.90;;;;;;5018843;28;20460;-63
2024/01/10 12:24:30;;;;;;;21.80;12.10;;;3.80;99.90;;;;;;5017833;28;20438;-64
2024/01/10 12:26:58;;;;;;;18.60;12.27;;;3.80;99.90;;;;;;5017806;28;20438;-63
2024/01/10 12:29:25;;;;;;;16.83;13.03;;;3.70;99.90;;;;;;5007801;28;20477;-63
2024/01/10 12:31:53;;;;;;;19.27;12.40;;;3.20;99.90;;;;;;5002116;28;20562;-63
2024/01/10 12:34:22;;;;;;;18.07;12.17;;;2.80;99.90;;;;;;5018642;28;20496;-64